createdAt,value
2018-09-26T00:00:21.969Z,4.00
2018-09-26T00:02:56.641Z,3.90
2018-09-26T00:05:25.629Z,3.90
2018-09-26T00:07:54.519Z,3.90
2018-09-26T00:10:23.567Z,3.90
2018-09-26T00:12:52.527Z,3.80
2018-09-26T00:15:21.432Z,3.80
2018-09-26T00:17:50.535Z,3.80
2018-09-26T00:20:19.482Z,3.80
2018-09-26T00:22:48.430Z,3.80
2018-09-26T00:25:17.356Z,3.70
2018-09-26T00:27:46.365Z,3.80
2018-09-26T00:30:15.342Z,3.70
2018-09-26T00:32:44.225Z,3.70
2018-09-26T00:35:13.180Z,3.70
2018-09-26T00:37:42.113Z,3.70
2018-09-26T00:40:11.051Z,3.70
2018-09-26T00:42:40.043Z,3.60
2018-09-26T00:45:09.119Z,3.60
2018-09-26T00:47:38.028Z,3.60
2018-09-26T00:50:07.031Z,3.60
2018-09-26T00:52:35.887Z,3.60
2018-09-26T00:55:04.785Z,3.60
2018-09-26T00:57:33.741Z,3.60
2018-09-26T01:00:02.723Z,3.50
2018-09-26T01:02:31.615Z,3.50
2018-09-26T01:05:00.543Z,3.50
2018-09-26T01:07:29.419Z,3.50
2018-09-26T01:09:58.284Z,3.50
2018-09-26T01:12:27.323Z,3.50
2018-09-26T01:14:56.202Z,3.50
2018-09-26T01:17:25.102Z,3.50
2018-09-26T01:19:54.028Z,3.40
2018-09-26T01:22:22.901Z,3.40
2018-09-26T01:24:51.767Z,3.40
2018-09-26T01:27:20.683Z,3.40
2018-09-26T01:29:49.593Z,3.40
2018-09-26T01:32:18.480Z,3.40
2018-09-26T01:34:47.419Z,3.40
2018-09-26T01:37:16.311Z,3.40
2018-09-26T01:39:45.171Z,3.40
2018-09-26T01:42:14.213Z,3.40
2018-09-26T01:44:43.111Z,3.40
2018-09-26T01:47:12.038Z,3.30
2018-09-26T01:49:40.968Z,3.30
2018-09-26T01:52:09.832Z,3.30
2018-09-26T01:54:38.732Z,3.30
2018-09-26T01:57:07.722Z,3.30
2018-09-26T01:59:36.656Z,3.30
2018-09-26T02:02:05.525Z,3.40
2018-09-26T02:04:34.476Z,3.30
2018-09-26T02:07:03.387Z,3.30
2018-09-26T02:09:32.287Z,3.30
2018-09-26T02:12:01.255Z,3.20
2018-09-26T02:14:30.127Z,3.20
2018-09-26T02:16:58.990Z,3.30
2018-09-26T02:19:27.904Z,3.30
2018-09-26T02:21:56.765Z,3.30
2018-09-26T02:24:25.621Z,3.30
2018-09-26T02:26:54.931Z,3.20
2018-09-26T02:29:23.811Z,3.20
2018-09-26T02:31:52.749Z,3.20
2018-09-26T02:34:21.668Z,3.20
2018-09-26T02:36:50.558Z,3.20
2018-09-26T02:39:19.442Z,3.20
2018-09-26T02:41:48.398Z,3.20
2018-09-26T02:44:17.307Z,3.20
2018-09-26T02:46:46.204Z,3.20
2018-09-26T02:49:15.186Z,3.10
2018-09-26T02:51:44.089Z,3.10
2018-09-26T02:54:12.988Z,3.10
2018-09-26T02:56:41.906Z,3.10
2018-09-26T02:59:10.755Z,3.10
2018-09-26T03:01:39.647Z,3.10
2018-09-26T03:04:08.629Z,3.10
2018-09-26T03:06:37.487Z,3.10
2018-09-26T03:09:07.807Z,3.10
2018-09-26T03:11:36.754Z,3.10
2018-09-26T03:14:06.408Z,3.10
2018-09-26T03:16:35.353Z,3.10
2018-09-26T03:19:04.363Z,3.10
2018-09-26T03:21:33.337Z,3.10
2018-09-26T03:24:02.243Z,3.10
2018-09-26T03:26:31.216Z,3.10
2018-09-26T03:29:00.113Z,3.10
2018-09-26T03:31:29.059Z,3.10
2018-09-26T03:33:58.279Z,3.10
2018-09-26T03:36:27.168Z,3.10
2018-09-26T03:38:56.044Z,3.10
2018-09-26T03:41:24.955Z,3.10
2018-09-26T03:43:53.839Z,3.10
2018-09-26T03:46:22.731Z,3.10
2018-09-26T03:48:51.703Z,3.10
2018-09-26T03:51:20.611Z,3.10
2018-09-26T03:53:49.504Z,3.20
2018-09-26T03:56:18.452Z,3.20
2018-09-26T03:58:47.324Z,3.10
2018-09-26T04:01:16.191Z,3.10
2018-09-26T04:03:45.107Z,3.00
2018-09-26T04:06:13.995Z,3.10
2018-09-26T04:08:42.883Z,3.20
2018-09-26T04:11:11.811Z,3.10
2018-09-26T04:13:40.698Z,3.10
2018-09-26T04:16:09.556Z,3.10
2018-09-26T04:18:38.504Z,3.00
2018-09-26T04:21:07.546Z,2.90
2018-09-26T04:23:36.428Z,2.90
2018-09-26T04:26:05.441Z,2.90
2018-09-26T04:28:34.381Z,3.00
2018-09-26T04:31:03.359Z,3.00
2018-09-26T04:33:32.409Z,3.00
2018-09-26T04:36:01.291Z,3.10
2018-09-26T04:38:30.268Z,3.20
2018-09-26T04:40:59.235Z,3.20
2018-09-26T04:43:28.336Z,3.20
2018-09-26T04:45:57.217Z,3.20
2018-09-26T04:48:26.230Z,3.30
2018-09-26T04:50:55.196Z,3.30
2018-09-26T04:53:24.072Z,3.30
2018-09-26T04:55:52.996Z,3.30
2018-09-26T04:58:21.921Z,3.50
2018-09-26T05:00:51.002Z,3.60
2018-09-26T05:03:19.928Z,3.60
2018-09-26T05:05:48.810Z,3.70
2018-09-26T05:08:17.686Z,3.80
2018-09-26T05:10:46.636Z,3.90
2018-09-26T05:13:15.530Z,4.00
2018-09-26T05:15:44.403Z,4.20
2018-09-26T05:18:13.311Z,4.40
2018-09-26T05:20:42.219Z,4.70
2018-09-26T05:23:11.191Z,5.70
2018-09-26T05:25:40.147Z,6.50
2018-09-26T05:28:09.096Z,6.90
2018-09-26T05:30:37.966Z,7.50
2018-09-26T05:33:07.026Z,9.20
2018-09-26T05:35:36.102Z,10.80
2018-09-26T05:38:05.009Z,11.10
2018-09-26T05:40:33.956Z,10.70
2018-09-26T05:43:02.920Z,9.80
2018-09-26T05:45:32.275Z,9.00
2018-09-26T05:48:01.265Z,8.40
2018-09-26T05:50:30.198Z,8.10
2018-09-26T05:52:59.079Z,7.60
2018-09-26T05:55:27.996Z,7.80
2018-09-26T05:57:56.879Z,8.00
2018-09-26T06:00:25.834Z,8.90
2018-09-26T06:02:54.775Z,9.70
2018-09-26T06:05:23.678Z,9.70
2018-09-26T06:07:52.771Z,9.70
2018-09-26T06:10:21.778Z,9.60
2018-09-26T06:12:50.704Z,10.40
2018-09-26T06:15:19.655Z,11.10
2018-09-26T06:17:48.576Z,12.80
2018-09-26T06:20:17.471Z,14.30
2018-09-26T06:22:46.360Z,15.00
2018-09-26T06:25:15.319Z,15.20
2018-09-26T06:27:44.258Z,15.90
2018-09-26T06:30:13.447Z,16.00
2018-09-26T06:32:42.681Z,16.50
2018-09-26T06:35:11.927Z,17.00
2018-09-26T06:37:40.858Z,17.90
2018-09-26T06:40:09.863Z,20.10
2018-09-26T06:42:38.774Z,21.60
2018-09-26T06:45:08.365Z,21.30
2018-09-26T06:47:37.689Z,21.00
2018-09-26T06:50:06.750Z,21.50
2018-09-26T06:52:35.630Z,23.80
2018-09-26T06:55:04.648Z,25.30
2018-09-26T06:57:33.547Z,26.10
2018-09-26T07:00:02.445Z,26.50
2018-09-26T07:02:31.404Z,28.10
2018-09-26T07:05:00.279Z,28.60
2018-09-26T07:07:29.227Z,29.10
2018-09-26T07:09:58.143Z,29.80
2018-09-26T07:12:27.049Z,30.20
2018-09-26T07:14:55.979Z,31.30
2018-09-26T07:17:24.914Z,31.00
2018-09-26T07:19:53.799Z,31.10
2018-09-26T07:22:22.689Z,30.50
2018-09-26T07:24:51.651Z,31.30
2018-09-26T07:27:20.538Z,32.40
2018-09-26T07:29:49.427Z,32.50
2018-09-26T07:32:18.445Z,33.50
2018-09-26T07:34:47.338Z,33.70
2018-09-26T07:37:16.207Z,34.50
2018-09-26T07:39:45.180Z,34.30
2018-09-26T07:42:14.052Z,34.90
2018-09-26T07:44:43.023Z,33.30
2018-09-26T07:47:11.933Z,33.10
2018-09-26T07:49:40.839Z,33.70
2018-09-26T07:52:09.749Z,34.20
2018-09-26T07:54:38.710Z,34.00
2018-09-26T07:57:07.664Z,34.40
2018-09-26T07:59:36.590Z,33.50
2018-09-26T08:02:05.549Z,33.30
2018-09-26T08:04:34.579Z,33.10
2018-09-26T08:07:03.496Z,33.00
2018-09-26T08:09:32.466Z,33.00
2018-09-26T08:12:01.353Z,33.20
2018-09-26T08:14:30.251Z,32.30
2018-09-26T08:16:59.214Z,31.70
2018-09-26T08:19:28.167Z,30.80
2018-09-26T08:21:57.109Z,30.70
2018-09-26T08:24:26.052Z,32.10
2018-09-26T08:26:54.935Z,32.20
2018-09-26T08:29:23.806Z,32.30
2018-09-26T08:31:53.024Z,31.00
2018-09-26T08:34:21.928Z,31.80
2018-09-26T08:36:50.815Z,30.40
2018-09-26T08:39:19.775Z,27.90
2018-09-26T08:41:48.647Z,26.50
2018-09-26T08:44:17.560Z,26.40
2018-09-26T08:46:46.576Z,25.90
2018-09-26T08:49:15.455Z,24.50
2018-09-26T08:51:44.399Z,22.80
2018-09-26T08:54:13.406Z,23.10
2018-09-26T08:56:42.338Z,23.00
2018-09-26T08:59:11.266Z,22.90
2018-09-26T09:01:45.796Z,23.60
2018-09-26T09:04:15.611Z,23.80
2018-09-26T09:06:44.809Z,23.50
2018-09-26T09:09:13.761Z,24.20
2018-09-26T09:11:42.660Z,23.70
2018-09-26T09:14:11.607Z,22.80
2018-09-26T09:16:40.527Z,22.10
2018-09-26T09:19:09.422Z,21.80
2018-09-26T09:21:38.511Z,21.40
2018-09-26T09:24:07.537Z,20.60
2018-09-26T09:26:36.417Z,19.90
2018-09-26T09:29:05.387Z,19.40
2018-09-26T09:31:34.339Z,18.80
2018-09-26T09:34:03.217Z,18.80
2018-09-26T09:36:32.213Z,18.70
2018-09-26T09:39:01.144Z,18.60
2018-09-26T09:41:30.084Z,18.70
2018-09-26T09:43:59.071Z,18.90
2018-09-26T09:46:28.102Z,18.60
2018-09-26T09:48:56.958Z,18.30
2018-09-26T09:51:25.899Z,18.30
2018-09-26T09:53:54.825Z,18.20
2018-09-26T09:56:23.758Z,18.20
2018-09-26T09:58:52.640Z,18.40
2018-09-26T10:01:27.583Z,18.60
2018-09-26T10:03:57.568Z,18.80
2018-09-26T10:06:26.511Z,18.90
2018-09-26T10:08:55.738Z,18.90
2018-09-26T10:11:24.674Z,18.80
2018-09-26T10:13:53.600Z,18.60
2018-09-26T10:16:22.859Z,18.60
2018-09-26T10:18:51.755Z,18.60
2018-09-26T10:21:20.710Z,19.00
2018-09-26T10:23:49.668Z,18.80
2018-09-26T10:26:18.597Z,18.80
2018-09-26T10:28:47.491Z,18.80
2018-09-26T10:31:16.443Z,19.10
2018-09-26T10:33:45.296Z,19.40
2018-09-26T10:36:14.170Z,19.50
2018-09-26T10:38:43.121Z,19.40
2018-09-26T10:41:12.058Z,19.30
2018-09-26T10:43:41.029Z,19.30
2018-09-26T10:46:10.077Z,19.20
2018-09-26T10:48:39.045Z,19.10
2018-09-26T10:51:07.966Z,19.00
2018-09-26T10:53:36.895Z,18.90
2018-09-26T10:56:05.858Z,18.90
2018-09-26T10:58:34.705Z,19.00
2018-09-26T11:01:03.675Z,18.50
2018-09-26T11:03:32.552Z,18.30
2018-09-26T11:06:01.441Z,18.30
2018-09-26T11:08:30.363Z,18.30
2018-09-26T11:10:59.359Z,18.40
2018-09-26T11:13:28.324Z,18.40
2018-09-26T11:15:57.354Z,18.20
2018-09-26T11:18:26.254Z,18.00
2018-09-26T11:20:55.143Z,17.90
2018-09-26T11:23:24.319Z,18.00
2018-09-26T11:25:53.195Z,18.20
2018-09-26T11:28:22.157Z,18.20
2018-09-26T11:30:51.135Z,17.90
2018-09-26T11:33:20.077Z,17.70
2018-09-26T11:35:48.977Z,17.50
2018-09-26T11:38:17.947Z,17.40
2018-09-26T11:40:46.863Z,17.30
2018-09-26T11:43:15.976Z,17.30
2018-09-26T11:45:45.029Z,17.30
2018-09-26T11:48:13.935Z,17.40
2018-09-26T11:50:42.852Z,17.50
2018-09-26T11:53:11.862Z,17.50
2018-09-26T11:55:40.756Z,17.50
2018-09-26T11:58:09.728Z,17.70
2018-09-26T12:00:38.770Z,17.70
2018-09-26T12:03:07.695Z,17.60
2018-09-26T12:05:36.576Z,17.70
2018-09-26T12:08:05.594Z,17.40
2018-09-26T12:10:34.532Z,17.50
2018-09-26T12:13:03.517Z,17.60
2018-09-26T12:15:32.510Z,17.70
2018-09-26T12:18:02.275Z,17.90
2018-09-26T12:20:31.162Z,17.90
2018-09-26T12:23:00.167Z,18.10
2018-09-26T12:25:29.087Z,18.30
2018-09-26T12:27:58.072Z,18.20
2018-09-26T12:30:27.091Z,18.20
2018-09-26T12:32:55.951Z,18.50
2018-09-26T12:35:24.900Z,18.70
2018-09-26T12:37:53.958Z,18.80
2018-09-26T12:40:22.895Z,18.90
2018-09-26T12:42:51.948Z,19.00
2018-09-26T12:45:20.811Z,19.00
2018-09-26T12:47:49.781Z,19.00
2018-09-26T12:50:18.668Z,18.70
2018-09-26T12:52:47.627Z,18.50
2018-09-26T12:55:16.516Z,18.30
2018-09-26T12:57:45.436Z,18.20
2018-09-26T13:00:14.420Z,18.40
2018-09-26T13:02:43.415Z,18.50
2018-09-26T13:05:12.304Z,18.50
2018-09-26T13:07:41.338Z,18.60
2018-09-26T13:10:10.198Z,18.50
2018-09-26T13:12:39.089Z,18.50
2018-09-26T13:15:08.100Z,18.60
2018-09-26T13:17:37.310Z,18.70
2018-09-26T13:20:07.005Z,18.50
2018-09-26T13:22:35.987Z,18.30
2018-09-26T13:25:04.966Z,18.30
2018-09-26T13:27:33.929Z,18.30
2018-09-26T13:30:02.894Z,18.30
2018-09-26T13:32:31.788Z,18.40
2018-09-26T13:35:00.669Z,18.40
2018-09-26T13:37:29.580Z,18.40
2018-09-26T13:39:58.459Z,18.30
2018-09-26T13:42:27.537Z,18.20
2018-09-26T13:44:57.254Z,18.30
2018-09-26T13:47:26.260Z,18.40
2018-09-26T13:49:55.177Z,18.50
2018-09-26T13:52:24.192Z,18.40
2018-09-26T13:54:53.098Z,18.40
2018-09-26T13:57:22.360Z,18.50
2018-09-26T13:59:51.920Z,18.60
2018-09-26T14:02:21.253Z,18.40
2018-09-26T14:04:50.210Z,18.20
2018-09-26T14:07:19.122Z,18.00
2018-09-26T14:09:48.050Z,17.90
2018-09-26T14:12:17.584Z,17.70
2018-09-26T14:14:46.551Z,17.60
2018-09-26T14:17:15.450Z,17.50
2018-09-26T14:19:44.374Z,17.50
2018-09-26T14:22:13.344Z,17.50
2018-09-26T14:24:42.227Z,17.60
2018-09-26T14:27:11.151Z,17.70
2018-09-26T14:29:40.102Z,17.70
2018-09-26T14:32:09.040Z,17.60
2018-09-26T14:34:37.899Z,17.50
2018-09-26T14:37:06.839Z,17.40
2018-09-26T14:39:35.809Z,17.50
2018-09-26T14:42:04.631Z,17.50
2018-09-26T14:44:33.547Z,17.40
2018-09-26T14:47:02.420Z,17.40
2018-09-26T14:49:31.488Z,17.40
2018-09-26T14:52:00.404Z,17.40
2018-09-26T14:54:29.296Z,17.50
2018-09-26T14:56:58.235Z,17.50
2018-09-26T14:59:27.224Z,17.30
2018-09-26T15:01:56.212Z,17.30
2018-09-26T15:04:25.205Z,17.00
2018-09-26T15:06:54.150Z,17.00
2018-09-26T15:09:23.044Z,16.90
2018-09-26T15:11:51.999Z,16.90
2018-09-26T15:14:21.009Z,17.00
2018-09-26T15:16:49.957Z,16.90
2018-09-26T15:19:18.852Z,16.90
2018-09-26T15:21:47.840Z,16.80
2018-09-26T15:24:16.749Z,16.60
2018-09-26T15:26:45.729Z,16.60
2018-09-26T15:29:14.650Z,16.50
2018-09-26T15:31:43.534Z,16.50
2018-09-26T15:34:12.524Z,16.40
2018-09-26T15:36:41.437Z,16.40
2018-09-26T15:39:11.367Z,16.40
2018-09-26T15:41:40.884Z,16.30
2018-09-26T15:44:09.888Z,16.30
2018-09-26T15:46:38.784Z,16.20
2018-09-26T15:49:07.747Z,16.00
2018-09-26T15:51:37.095Z,16.00
2018-09-26T15:54:06.017Z,16.00
2018-09-26T15:56:34.958Z,15.90
2018-09-26T15:59:04.043Z,15.80
2018-09-26T16:01:32.988Z,15.70
2018-09-26T16:04:02.968Z,15.70
2018-09-26T16:06:32.880Z,15.60
2018-09-26T16:09:02.048Z,15.50
2018-09-26T16:11:34.148Z,15.50
2018-09-26T16:14:04.680Z,15.50
2018-09-26T16:16:44.849Z,15.40
2018-09-26T16:19:14.677Z,15.20
2018-09-26T16:22:06.086Z,15.10
2018-09-26T16:24:36.512Z,15.10
2018-09-26T16:27:07.084Z,15.00
2018-09-26T16:29:36.306Z,14.90
2018-09-26T16:32:05.476Z,14.80
2018-09-26T16:34:34.368Z,14.60
2018-09-26T16:37:03.531Z,14.50
2018-09-26T16:39:32.738Z,14.50
2018-09-26T16:42:04.706Z,14.30
2018-09-26T16:44:36.557Z,14.30
2018-09-26T16:47:09.347Z,14.20
2018-09-26T16:49:42.269Z,14.10
2018-09-26T16:52:13.313Z,14.00
2018-09-26T16:54:42.604Z,13.90
2018-09-26T16:57:11.739Z,13.90
2018-09-26T16:59:40.819Z,13.90
2018-09-26T17:02:09.816Z,13.80
2018-09-26T17:04:38.770Z,13.70
2018-09-26T17:07:08.079Z,13.60
2018-09-26T17:09:42.326Z,13.50
2018-09-26T17:12:12.865Z,13.40
2018-09-26T17:14:42.374Z,13.30
2018-09-26T17:17:12.436Z,13.30
2018-09-26T17:19:42.629Z,13.20
2018-09-26T17:22:12.192Z,13.20
2018-09-26T17:24:41.839Z,13.10
2018-09-26T17:27:11.082Z,13.00
2018-09-26T17:29:40.027Z,12.80
2018-09-26T17:32:08.931Z,12.80
2018-09-26T17:34:37.911Z,12.80
2018-09-26T17:37:06.878Z,12.70
2018-09-26T17:39:35.762Z,12.70
2018-09-26T17:42:04.692Z,12.60
2018-09-26T17:44:33.702Z,12.60
2018-09-26T17:47:02.631Z,12.70
2018-09-26T17:49:31.535Z,12.60
2018-09-26T17:52:00.995Z,12.60
2018-09-26T17:54:30.325Z,12.50
2018-09-26T17:56:59.560Z,12.50
2018-09-26T17:59:29.000Z,12.60
2018-09-26T18:01:58.404Z,12.60
2018-09-26T18:04:27.421Z,12.60
2018-09-26T18:06:56.944Z,12.50
2018-09-26T18:09:26.626Z,12.50
2018-09-26T18:11:55.692Z,12.50
2018-09-26T18:14:25.047Z,12.40
2018-09-26T18:16:54.409Z,12.30
2018-09-26T18:19:23.489Z,12.20
2018-09-26T18:21:52.842Z,12.20
2018-09-26T18:24:22.766Z,12.30
2018-09-26T18:26:51.776Z,12.30
2018-09-26T18:29:20.746Z,12.20
2018-09-26T18:31:49.891Z,12.10
2018-09-26T18:34:18.983Z,12.10
2018-09-26T18:36:47.902Z,12.00
2018-09-26T18:39:16.939Z,11.90
2018-09-26T18:41:45.832Z,11.90
2018-09-26T18:44:14.792Z,11.80
2018-09-26T18:46:43.692Z,11.80
2018-09-26T18:49:12.648Z,11.70
2018-09-26T18:51:41.638Z,11.70
2018-09-26T18:54:10.643Z,11.60
2018-09-26T18:56:39.555Z,11.60
2018-09-26T18:59:08.823Z,11.50
2018-09-26T19:01:38.692Z,11.40
2018-09-26T19:04:07.816Z,11.40
2018-09-26T19:06:37.147Z,11.30
2018-09-26T19:09:08.973Z,11.30
2018-09-26T19:11:38.495Z,11.30
2018-09-26T19:14:07.733Z,11.40
2018-09-26T19:16:36.848Z,11.30
2018-09-26T19:19:06.112Z,11.30
2018-09-26T19:21:35.695Z,11.30
2018-09-26T19:24:04.847Z,11.30
2018-09-26T19:26:48.929Z,11.30
2018-09-26T19:29:17.830Z,11.30
2018-09-26T19:31:46.725Z,11.30
2018-09-26T19:34:15.672Z,11.30
2018-09-26T19:36:44.566Z,11.40
2018-09-26T19:39:13.889Z,11.50
2018-09-26T19:41:42.956Z,11.50
2018-09-26T19:44:12.154Z,11.70
2018-09-26T19:46:41.695Z,11.80
2018-09-26T19:49:10.620Z,12.00
2018-09-26T19:51:40.013Z,12.10
2018-09-26T19:54:09.146Z,12.10
2018-09-26T19:56:38.092Z,12.20
2018-09-26T19:59:07.101Z,12.40
2018-09-26T20:01:36.006Z,12.50
2018-09-26T20:04:05.015Z,12.50
2018-09-26T20:06:34.553Z,12.50
2018-09-26T20:09:04.305Z,12.50
2018-09-26T20:11:33.542Z,12.60
2018-09-26T20:14:03.092Z,12.70
2018-09-26T20:16:32.460Z,12.80
2018-09-26T20:19:01.960Z,12.80
2018-09-26T20:21:31.271Z,12.80
2018-09-26T20:24:00.677Z,12.90
2018-09-26T20:26:30.947Z,12.90
2018-09-26T20:29:00.150Z,12.90
2018-09-26T20:31:29.173Z,12.90
2018-09-26T20:33:58.326Z,12.90
2018-09-26T20:36:28.234Z,12.90
2018-09-26T20:38:57.485Z,12.80
2018-09-26T20:41:26.774Z,12.80
2018-09-26T20:43:56.026Z,12.80
2018-09-26T20:46:25.351Z,12.80
2018-09-26T20:48:54.572Z,12.80
2018-09-26T20:51:23.774Z,12.80
2018-09-26T20:53:53.185Z,12.80
2018-09-26T20:56:23.311Z,12.80
2018-09-26T20:58:53.000Z,12.70
2018-09-26T21:01:22.395Z,12.60
2018-09-26T21:03:51.554Z,12.60
2018-09-26T21:06:21.429Z,12.60
2018-09-26T21:08:50.643Z,12.60
2018-09-26T21:11:19.892Z,12.50
2018-09-26T21:13:50.166Z,12.40
2018-09-26T21:16:19.720Z,12.30
2018-09-26T21:18:51.243Z,12.30
2018-09-26T21:21:21.123Z,12.20
2018-09-26T21:23:50.316Z,12.20
2018-09-26T21:26:19.418Z,12.10
2018-09-26T21:28:48.674Z,12.00
2018-09-26T21:31:18.359Z,12.00
2018-09-26T21:33:48.481Z,11.90
2018-09-26T21:36:17.850Z,11.90
2018-09-26T21:38:47.568Z,11.80
2018-09-26T21:41:17.262Z,11.80
2018-09-26T21:43:46.465Z,11.80
2018-09-26T21:46:15.812Z,11.70
2018-09-26T21:48:45.092Z,11.80
2018-09-26T21:51:14.360Z,11.80
2018-09-26T21:53:43.649Z,11.70
2018-09-26T21:56:13.157Z,11.70
2018-09-26T21:58:42.941Z,11.80
2018-09-26T22:01:14.872Z,11.80
2018-09-26T22:03:44.014Z,11.80
2018-09-26T22:06:13.610Z,11.80
2018-09-26T22:08:42.733Z,11.80
2018-09-26T22:11:11.978Z,11.90
2018-09-26T22:13:40.851Z,12.00
2018-09-26T22:16:09.943Z,12.10
2018-09-26T22:18:38.830Z,12.40
2018-09-26T22:21:07.803Z,12.50
2018-09-26T22:23:36.755Z,12.60
2018-09-26T22:26:05.661Z,12.70
2018-09-26T22:28:36.175Z,12.80
2018-09-26T22:31:05.465Z,12.80
2018-09-26T22:33:34.659Z,12.80
2018-09-26T22:36:03.750Z,12.70
2018-09-26T22:38:32.942Z,12.70
2018-09-26T22:41:02.244Z,12.80
2018-09-26T22:43:31.331Z,12.90
2018-09-26T22:46:00.447Z,12.90
2018-09-26T22:48:42.133Z,12.90
2018-09-26T22:51:11.338Z,12.90
2018-09-26T22:53:40.495Z,12.90
2018-09-26T22:56:09.563Z,13.00
2018-09-26T22:58:38.713Z,13.00
2018-09-26T23:01:07.928Z,13.00
2018-09-26T23:03:37.193Z,12.90
2018-09-26T23:06:06.422Z,13.00
2018-09-26T23:08:35.468Z,13.00
2018-09-26T23:11:04.859Z,13.10
2018-09-26T23:13:34.033Z,13.20
2018-09-26T23:16:03.571Z,13.30
2018-09-26T23:18:32.667Z,13.40
2018-09-26T23:21:01.863Z,13.50
2018-09-26T23:23:31.480Z,13.50
2018-09-26T23:26:00.754Z,13.60
2018-09-26T23:28:29.744Z,13.70
2018-09-26T23:30:58.607Z,13.70
2018-09-26T23:33:27.492Z,13.80
2018-09-26T23:35:56.411Z,13.80
2018-09-26T23:38:25.289Z,13.90
2018-09-26T23:40:54.217Z,13.90
2018-09-26T23:43:23.497Z,14.00
2018-09-26T23:45:52.589Z,14.00
2018-09-26T23:48:21.626Z,14.00
2018-09-26T23:50:50.836Z,14.00
2018-09-26T23:53:20.682Z,14.10
2018-09-26T23:55:49.771Z,14.00
2018-09-26T23:58:18.914Z,14.00
